createdAt,value
2017-12-20T00:00:32.046Z,0
2017-12-20T00:01:41.484Z,0
2017-12-20T00:02:51.186Z,0
2017-12-20T00:04:00.645Z,0
2017-12-20T00:05:10.628Z,0
2017-12-20T00:06:20.589Z,0
2017-12-20T00:07:30.287Z,0
2017-12-20T00:08:40.237Z,0
2017-12-20T00:09:50.187Z,0
2017-12-20T00:11:00.146Z,0
2017-12-20T00:12:10.106Z,0
2017-12-20T00:13:19.809Z,0
2017-12-20T00:14:29.516Z,0
2017-12-20T00:15:39.466Z,0
2017-12-20T00:16:49.415Z,0
2017-12-20T00:17:58.865Z,0
2017-12-20T00:19:08.569Z,0
2017-12-20T00:20:18.000Z,0
2017-12-20T00:21:27.692Z,0
2017-12-20T00:22:37.135Z,0
2017-12-20T00:23:46.578Z,0
2017-12-20T00:24:56.272Z,0
2017-12-20T00:26:05.710Z,0
2017-12-20T00:27:15.662Z,0
2017-12-20T00:28:25.618Z,0
2017-12-20T00:29:35.565Z,0
2017-12-20T00:30:45.004Z,0
2017-12-20T00:31:54.454Z,0
2017-12-20T00:33:04.415Z,0
2017-12-20T00:34:14.366Z,0
2017-12-20T00:35:24.051Z,0
2017-12-20T00:36:33.746Z,0
2017-12-20T00:37:43.703Z,0
2017-12-20T00:38:53.655Z,0
2017-12-20T00:40:03.091Z,0
2017-12-20T00:41:13.034Z,0
2017-12-20T00:42:22.711Z,0
2017-12-20T00:43:32.145Z,0
2017-12-20T00:44:41.576Z,0
2017-12-20T00:45:51.272Z,0
2017-12-20T00:47:01.042Z,0
2017-12-20T00:48:10.734Z,0
2017-12-20T00:49:20.436Z,0
2017-12-20T00:50:30.146Z,0
2017-12-20T00:51:40.105Z,0
2017-12-20T00:52:49.548Z,0
2017-12-20T00:53:59.236Z,0
2017-12-20T00:55:09.183Z,0
2017-12-20T00:56:19.123Z,0
2017-12-20T00:57:29.078Z,0
2017-12-20T00:58:39.031Z,0
2017-12-20T00:59:48.462Z,0
2017-12-20T01:00:57.885Z,0
2017-12-20T01:02:07.064Z,0
2017-12-20T01:03:16.483Z,0
2017-12-20T01:04:25.668Z,0
2017-12-20T01:05:35.380Z,0
2017-12-20T01:06:45.074Z,0
2017-12-20T01:07:55.029Z,0
2017-12-20T01:09:04.979Z,0
2017-12-20T01:10:14.924Z,0
2017-12-20T01:11:24.625Z,0
2017-12-20T01:12:34.575Z,0
2017-12-20T01:13:44.540Z,0
2017-12-20T01:14:53.980Z,0
2017-12-20T01:16:03.415Z,0
2017-12-20T01:17:13.105Z,0
2017-12-20T01:18:22.797Z,0
2017-12-20T01:19:32.751Z,0
2017-12-20T01:20:42.705Z,0
2017-12-20T01:21:52.393Z,0
2017-12-20T01:23:02.083Z,0
2017-12-20T01:24:11.772Z,0
2017-12-20T01:25:21.744Z,0
2017-12-20T01:26:31.505Z,0
2017-12-20T01:27:41.198Z,0
2017-12-20T01:28:50.898Z,0
2017-12-20T01:30:00.590Z,0
2017-12-20T01:31:10.278Z,0
2017-12-20T01:32:20.219Z,0
2017-12-20T01:33:30.181Z,0
2017-12-20T01:34:40.140Z,0
2017-12-20T01:35:49.572Z,0
2017-12-20T01:36:58.764Z,0
2017-12-20T01:38:08.453Z,0
2017-12-20T01:39:17.877Z,0
2017-12-20T01:40:27.571Z,0
2017-12-20T01:41:37.255Z,0
2017-12-20T01:42:46.951Z,0
2017-12-20T01:43:56.665Z,0
2017-12-20T01:45:06.117Z,0
2017-12-20T01:46:15.814Z,0
2017-12-20T01:47:25.504Z,0
2017-12-20T01:48:34.936Z,0
2017-12-20T01:49:44.640Z,0
2017-12-20T01:50:54.604Z,0
2017-12-20T01:52:04.569Z,0
2017-12-20T01:53:14.258Z,0
2017-12-20T01:54:24.218Z,0
2017-12-20T01:55:33.399Z,0
2017-12-20T01:56:42.840Z,0
2017-12-20T01:57:52.794Z,0
2017-12-20T01:59:02.485Z,0
2017-12-20T02:00:12.184Z,0
2017-12-20T02:01:22.187Z,0
2017-12-20T02:02:31.620Z,0
2017-12-20T02:03:41.053Z,0
2017-12-20T02:04:50.751Z,0
2017-12-20T02:06:00.438Z,0
2017-12-20T02:07:10.393Z,0
2017-12-20T02:08:20.357Z,0
2017-12-20T02:09:30.054Z,0
2017-12-20T02:10:39.754Z,0
2017-12-20T02:11:49.707Z,0
2017-12-20T02:12:58.883Z,0
2017-12-20T02:14:08.591Z,0
2017-12-20T02:15:18.608Z,0
2017-12-20T02:16:28.295Z,0
2017-12-20T02:17:38.233Z,0
2017-12-20T02:18:48.196Z,0
2017-12-20T02:19:57.888Z,0
2017-12-20T02:21:07.572Z,0
2017-12-20T02:22:17.006Z,0
2017-12-20T02:23:26.708Z,0
2017-12-20T02:24:36.142Z,0
2017-12-20T02:25:45.856Z,0
2017-12-20T02:26:55.278Z,0
2017-12-20T02:28:05.225Z,0
2017-12-20T02:29:15.175Z,0
2017-12-20T02:30:25.145Z,0
2017-12-20T02:31:35.120Z,0
2017-12-20T02:32:44.558Z,0
2017-12-20T02:33:54.251Z,0
2017-12-20T02:35:03.434Z,0
2017-12-20T02:36:13.127Z,0
2017-12-20T02:37:22.820Z,0
2017-12-20T02:38:32.011Z,0
2017-12-20T02:39:41.699Z,0
2017-12-20T02:40:51.389Z,0
2017-12-20T02:42:01.339Z,0
2017-12-20T02:43:11.035Z,0
2017-12-20T02:44:20.757Z,0
2017-12-20T02:45:30.196Z,0
2017-12-20T02:46:40.158Z,0
2017-12-20T02:47:49.860Z,0
2017-12-20T02:48:59.551Z,0
2017-12-20T02:50:08.746Z,0
2017-12-20T02:51:18.689Z,0
2017-12-20T02:52:28.380Z,0
2017-12-20T02:53:38.585Z,0
2017-12-20T02:54:48.282Z,0
2017-12-20T02:55:58.303Z,0
2017-12-20T02:57:08.023Z,0
2017-12-20T02:58:17.720Z,0
2017-12-20T02:59:27.663Z,0
2017-12-20T03:00:37.353Z,0
2017-12-20T03:01:46.783Z,0
2017-12-20T03:02:56.470Z,0
2017-12-20T03:04:06.422Z,0
2017-12-20T03:05:16.131Z,0
2017-12-20T03:06:25.580Z,0
2017-12-20T03:07:35.550Z,0
2017-12-20T03:08:45.494Z,0
2017-12-20T03:09:55.186Z,0
2017-12-20T03:11:05.135Z,0
2017-12-20T03:12:15.081Z,0
2017-12-20T03:13:25.019Z,0
2017-12-20T03:14:34.978Z,0
2017-12-20T03:15:44.668Z,0
2017-12-20T03:16:54.099Z,0
2017-12-20T03:18:03.536Z,0
2017-12-20T03:19:13.495Z,0
2017-12-20T03:20:23.449Z,0
2017-12-20T03:21:33.129Z,0
2017-12-20T03:22:42.299Z,0
2017-12-20T03:23:51.991Z,0
2017-12-20T03:25:01.680Z,0
2017-12-20T03:26:11.369Z,0
2017-12-20T03:27:21.349Z,0
2017-12-20T03:28:31.037Z,0
2017-12-20T03:29:40.722Z,0
2017-12-20T03:30:50.673Z,0
2017-12-20T03:32:00.621Z,0
2017-12-20T03:33:10.068Z,0
2017-12-20T03:34:19.759Z,0
2017-12-20T03:35:29.706Z,0
2017-12-20T03:36:39.141Z,0
2017-12-20T03:37:48.576Z,0
2017-12-20T03:38:58.576Z,0
2017-12-20T03:40:08.013Z,0
2017-12-20T03:41:18.022Z,0
2017-12-20T03:42:27.955Z,0
2017-12-20T03:43:37.651Z,0
2017-12-20T03:44:47.351Z,0
2017-12-20T03:45:57.300Z,0
2017-12-20T03:47:06.221Z,0
2017-12-20T03:48:16.164Z,0
2017-12-20T03:49:25.852Z,0
2017-12-20T03:50:35.803Z,0
2017-12-20T03:51:45.502Z,0
2017-12-20T03:52:55.194Z,0
2017-12-20T03:54:04.882Z,0
2017-12-20T03:55:14.316Z,0
2017-12-20T03:56:24.004Z,0
2017-12-20T03:57:33.959Z,0
2017-12-20T03:58:43.890Z,0
2017-12-20T03:59:53.882Z,0
2017-12-20T04:01:03.850Z,0
2017-12-20T04:02:13.560Z,0
2017-12-20T04:03:23.006Z,0
2017-12-20T04:04:32.700Z,0
2017-12-20T04:05:42.650Z,0
2017-12-20T04:06:52.094Z,0
2017-12-20T04:08:01.778Z,0
2017-12-20T04:09:10.962Z,0
2017-12-20T04:10:20.913Z,0
2017-12-20T04:11:30.344Z,0
2017-12-20T04:12:40.318Z,0
2017-12-20T04:13:50.275Z,0
2017-12-20T04:14:59.967Z,0
2017-12-20T04:16:09.407Z,0
2017-12-20T04:17:19.351Z,0
2017-12-20T04:18:28.776Z,0
2017-12-20T04:19:38.717Z,0
2017-12-20T04:20:47.888Z,0
2017-12-20T04:21:57.594Z,0
2017-12-20T04:23:07.551Z,0
2017-12-20T04:24:17.535Z,0
2017-12-20T04:25:27.482Z,0
2017-12-20T04:26:37.420Z,0
2017-12-20T04:27:47.371Z,0
2017-12-20T04:28:57.321Z,0
2017-12-20T04:30:07.015Z,0
2017-12-20T04:31:16.722Z,0
2017-12-20T04:32:26.411Z,0
2017-12-20T04:33:36.094Z,0
2017-12-20T04:34:45.794Z,0
2017-12-20T04:35:55.488Z,0
2017-12-20T04:37:05.439Z,0
2017-12-20T04:38:15.385Z,0
2017-12-20T04:39:25.328Z,0
2017-12-20T04:40:35.333Z,0
2017-12-20T04:41:45.017Z,0
2017-12-20T04:42:54.704Z,0
2017-12-20T04:44:04.386Z,0
2017-12-20T04:45:14.155Z,0
2017-12-20T04:46:23.840Z,0
2017-12-20T04:47:33.535Z,0
2017-12-20T04:48:43.481Z,0
2017-12-20T04:49:52.919Z,0
2017-12-20T04:51:02.869Z,0
2017-12-20T04:52:12.822Z,0
2017-12-20T04:53:22.508Z,0
2017-12-20T04:54:32.469Z,0
2017-12-20T04:55:42.170Z,0
2017-12-20T04:56:51.861Z,0
2017-12-20T04:58:01.816Z,0
2017-12-20T04:59:11.509Z,0
2017-12-20T05:00:21.481Z,0
2017-12-20T05:01:31.422Z,0
2017-12-20T05:02:41.363Z,0
2017-12-20T05:03:51.319Z,0
2017-12-20T05:05:01.270Z,0
2017-12-20T05:06:10.704Z,0
2017-12-20T05:07:20.671Z,0
2017-12-20T05:08:30.364Z,0
2017-12-20T05:09:39.794Z,0
2017-12-20T05:10:49.810Z,0
2017-12-20T05:11:59.772Z,0
2017-12-20T05:13:09.744Z,0
2017-12-20T05:14:19.693Z,0
2017-12-20T05:15:29.669Z,0
2017-12-20T05:16:39.379Z,0
2017-12-20T05:17:49.085Z,0
2017-12-20T05:18:59.068Z,0
2017-12-20T05:20:08.821Z,0
2017-12-20T05:21:18.764Z,0
2017-12-20T05:22:28.709Z,0
2017-12-20T05:23:38.400Z,0
2017-12-20T05:24:48.134Z,0
2017-12-20T05:25:58.083Z,0
2017-12-20T05:27:07.576Z,0
2017-12-20T05:28:16.681Z,0
2017-12-20T05:29:26.633Z,0
2017-12-20T05:30:36.330Z,0
2017-12-20T05:31:46.036Z,0
2017-12-20T05:32:55.988Z,0
2017-12-20T05:34:05.967Z,0
2017-12-20T05:35:15.662Z,0
2017-12-20T05:36:25.399Z,0
2017-12-20T05:37:35.349Z,0
2017-12-20T05:38:45.039Z,0
2017-12-20T05:39:54.987Z,0
2017-12-20T05:41:04.688Z,0
2017-12-20T05:42:14.640Z,0
2017-12-20T05:43:24.332Z,0
2017-12-20T05:44:33.507Z,0
2017-12-20T05:45:43.196Z,0
2017-12-20T05:46:53.147Z,0
2017-12-20T05:48:02.835Z,0
2017-12-20T05:49:12.520Z,0
2017-12-20T05:50:22.474Z,0
2017-12-20T05:51:32.158Z,0
2017-12-20T05:52:42.105Z,0
2017-12-20T05:53:51.280Z,0
2017-12-20T05:55:00.990Z,0
2017-12-20T05:56:10.678Z,0
2017-12-20T05:57:20.101Z,0
2017-12-20T05:58:29.802Z,0
2017-12-20T05:59:39.491Z,0
2017-12-20T06:00:49.185Z,0
2017-12-20T06:01:59.126Z,0
2017-12-20T06:03:08.883Z,0
2017-12-20T06:04:18.854Z,0
2017-12-20T06:05:28.546Z,0
2017-12-20T06:06:38.240Z,0
2017-12-20T06:07:47.930Z,0
2017-12-20T06:08:57.863Z,0
2017-12-20T06:10:07.815Z,0
2017-12-20T06:11:17.504Z,0
2017-12-20T06:12:26.931Z,0
2017-12-20T06:13:36.892Z,0
2017-12-20T06:14:46.591Z,0
2017-12-20T06:15:56.286Z,0
2017-12-20T06:17:06.249Z,0
2017-12-20T06:18:16.214Z,0
2017-12-20T06:19:25.899Z,0
2017-12-20T06:20:35.855Z,0
2017-12-20T06:21:45.561Z,0
2017-12-20T06:22:55.245Z,0
2017-12-20T06:24:04.419Z,0
2017-12-20T06:25:14.134Z,0
2017-12-20T06:26:23.822Z,0
2017-12-20T06:27:33.508Z,0
2017-12-20T06:28:43.188Z,0
2017-12-20T06:29:52.374Z,0
2017-12-20T06:31:02.608Z,0
2017-12-20T06:32:12.055Z,0
2017-12-20T06:33:21.758Z,0
2017-12-20T06:34:31.456Z,0
2017-12-20T06:35:41.403Z,0
2017-12-20T06:36:51.112Z,4
2017-12-20T06:38:01.078Z,4
2017-12-20T06:39:11.051Z,0
2017-12-20T06:40:21.044Z,4
2017-12-20T06:41:30.995Z,4
2017-12-20T06:42:40.968Z,8
2017-12-20T06:43:50.727Z,4
2017-12-20T06:45:00.437Z,4
2017-12-20T06:46:10.131Z,4
2017-12-20T06:47:20.077Z,8
2017-12-20T06:48:30.013Z,12
2017-12-20T06:49:39.447Z,16
2017-12-20T06:50:48.625Z,16
2017-12-20T06:51:58.630Z,16
2017-12-20T06:53:08.606Z,20
2017-12-20T06:54:18.574Z,24
2017-12-20T06:55:28.388Z,28
2017-12-20T06:56:37.864Z,28
2017-12-20T06:57:47.807Z,32
2017-12-20T06:58:57.495Z,32
2017-12-20T07:00:07.185Z,36
2017-12-20T07:01:17.141Z,44
2017-12-20T07:02:26.835Z,52
2017-12-20T07:03:36.267Z,56
2017-12-20T07:04:45.707Z,68
2017-12-20T07:05:55.655Z,72
2017-12-20T07:07:05.361Z,72
2017-12-20T07:08:14.799Z,76
2017-12-20T07:09:24.767Z,88
2017-12-20T07:10:34.752Z,104
2017-12-20T07:11:44.449Z,120
2017-12-20T07:12:53.880Z,140
2017-12-20T07:14:03.826Z,164
2017-12-20T07:15:13.802Z,192
2017-12-20T07:16:23.838Z,212
2017-12-20T07:17:33.270Z,236
2017-12-20T07:18:43.236Z,256
2017-12-20T07:19:52.667Z,280
2017-12-20T07:21:02.392Z,304
2017-12-20T07:22:12.088Z,328
2017-12-20T07:23:21.794Z,352
2017-12-20T07:24:31.542Z,376
2017-12-20T07:25:41.251Z,404
2017-12-20T07:26:50.947Z,432
2017-12-20T07:28:00.684Z,448
2017-12-20T07:29:10.152Z,468
2017-12-20T07:30:19.839Z,492
2017-12-20T07:31:29.813Z,524
2017-12-20T07:32:39.788Z,556
2017-12-20T07:33:49.523Z,584
2017-12-20T07:34:59.238Z,628
2017-12-20T07:36:09.212Z,680
2017-12-20T07:37:18.665Z,716
2017-12-20T07:38:28.655Z,748
2017-12-20T07:39:38.630Z,768
2017-12-20T07:40:48.627Z,796
2017-12-20T07:41:58.066Z,824
2017-12-20T07:43:07.516Z,856
2017-12-20T07:44:17.264Z,880
2017-12-20T07:45:27.000Z,904
2017-12-20T07:46:36.983Z,928
2017-12-20T07:47:46.769Z,960
2017-12-20T07:48:56.502Z,1012
2017-12-20T07:50:06.230Z,1052
2017-12-20T07:51:16.231Z,1100
2017-12-20T07:52:25.939Z,1144
2017-12-20T07:53:35.936Z,1180
2017-12-20T07:54:45.993Z,1228
2017-12-20T07:55:55.730Z,1284
2017-12-20T07:57:05.439Z,1348
2017-12-20T07:58:15.447Z,1412
2017-12-20T07:59:24.940Z,1452
2017-12-20T08:00:34.646Z,1492
2017-12-20T08:01:44.370Z,1556
2017-12-20T08:02:53.818Z,1624
2017-12-20T08:04:03.539Z,1700
2017-12-20T08:05:13.538Z,1780
2017-12-20T08:06:23.498Z,1872
2017-12-20T08:07:33.452Z,1968
2017-12-20T08:08:43.171Z,2068
2017-12-20T08:09:53.151Z,2148
2017-12-20T08:11:03.137Z,2192
2017-12-20T08:12:12.904Z,2236
2017-12-20T08:13:22.906Z,2320
2017-12-20T08:14:32.968Z,2420
2017-12-20T08:15:42.958Z,2492
2017-12-20T08:16:52.676Z,2564
2017-12-20T08:18:02.456Z,2656
2017-12-20T08:19:12.209Z,2764
2017-12-20T08:20:21.919Z,2860
2017-12-20T08:21:31.870Z,2944
2017-12-20T08:22:41.604Z,3048
2017-12-20T08:23:51.576Z,3192
2017-12-20T08:25:01.302Z,3352
2017-12-20T08:26:11.307Z,3520
2017-12-20T08:27:21.277Z,3692
2017-12-20T08:28:31.240Z,3848
2017-12-20T08:29:41.220Z,3996
2017-12-20T08:30:51.169Z,4100
2017-12-20T08:32:00.884Z,4172
2017-12-20T08:33:10.849Z,4216
2017-12-20T08:34:20.551Z,4248
2017-12-20T08:35:30.291Z,4304
2017-12-20T08:36:40.259Z,4396
2017-12-20T08:37:50.222Z,4564
2017-12-20T08:39:00.167Z,4772
2017-12-20T08:40:09.866Z,4984
2017-12-20T08:41:19.829Z,5124
2017-12-20T08:42:29.783Z,5280
2017-12-20T08:43:39.489Z,5460
2017-12-20T08:44:49.190Z,5584
2017-12-20T08:45:59.168Z,5684
2017-12-20T08:47:09.147Z,5744
2017-12-20T08:48:19.128Z,5636
2017-12-20T08:49:28.836Z,5496
2017-12-20T08:50:38.288Z,5396
2017-12-20T08:51:48.263Z,5380
2017-12-20T08:52:57.967Z,5416
2017-12-20T08:54:07.926Z,5460
2017-12-20T08:55:17.701Z,5368
2017-12-20T08:56:27.704Z,5236
2017-12-20T08:57:37.668Z,5212
2017-12-20T08:58:47.396Z,5292
2017-12-20T08:59:57.370Z,5320
2017-12-20T09:01:07.383Z,5276
2017-12-20T09:02:17.343Z,5324
2017-12-20T09:03:27.040Z,5488
2017-12-20T09:04:36.494Z,5588
2017-12-20T09:05:46.470Z,5656
2017-12-20T09:06:56.585Z,5812
2017-12-20T09:08:06.307Z,6000
2017-12-20T09:09:16.103Z,6048
2017-12-20T09:10:25.547Z,6036
2017-12-20T09:11:35.524Z,6044
2017-12-20T09:12:45.234Z,6008
2017-12-20T09:13:54.971Z,6028
2017-12-20T09:15:05.014Z,6316
2017-12-20T09:16:14.774Z,6724
2017-12-20T09:17:24.743Z,6968
2017-12-20T09:18:34.956Z,7176
2017-12-20T09:19:45.000Z,7312
2017-12-20T09:20:54.741Z,7452
2017-12-20T09:22:04.442Z,7500
2017-12-20T09:23:14.396Z,7632
2017-12-20T09:24:24.104Z,7552
2017-12-20T09:25:33.808Z,7468
2017-12-20T09:26:43.243Z,7016
2017-12-20T09:27:52.953Z,6804
2017-12-20T09:29:02.654Z,6828
2017-12-20T09:30:12.667Z,6848
2017-12-20T09:31:22.630Z,7076
2017-12-20T09:32:32.338Z,7396
2017-12-20T09:33:42.358Z,7476
2017-12-20T09:34:51.826Z,7124
2017-12-20T09:36:01.803Z,6904
2017-12-20T09:37:11.752Z,7128
2017-12-20T09:38:21.731Z,7648
2017-12-20T09:39:31.701Z,7884
2017-12-20T09:40:41.160Z,7684
2017-12-20T09:41:51.142Z,7500
2017-12-20T09:43:01.138Z,7704
2017-12-20T09:44:10.839Z,8084
2017-12-20T09:45:20.840Z,8236
2017-12-20T09:46:30.845Z,8284
2017-12-20T09:47:40.284Z,8244
2017-12-20T09:48:49.990Z,8324
2017-12-20T09:49:59.424Z,8456
2017-12-20T09:51:09.372Z,8644
2017-12-20T09:52:19.167Z,8872
2017-12-20T09:53:28.875Z,9088
2017-12-20T09:54:38.849Z,8500
2017-12-20T09:55:48.581Z,8216
2017-12-20T09:56:58.054Z,8188
2017-12-20T09:58:08.025Z,7880
2017-12-20T09:59:17.469Z,6428
2017-12-20T10:00:27.455Z,5288
2017-12-20T10:01:37.122Z,4824
2017-12-20T10:02:46.983Z,5516
2017-12-20T10:03:56.963Z,6808
2017-12-20T10:05:06.957Z,7284
2017-12-20T10:06:16.724Z,7428
2017-12-20T10:07:26.429Z,7532
2017-12-20T10:08:36.421Z,6676
2017-12-20T10:09:46.388Z,5696
2017-12-20T10:10:55.843Z,5680
2017-12-20T10:12:05.811Z,6308
2017-12-20T10:13:15.527Z,6632
2017-12-20T10:14:25.489Z,6964
2017-12-20T10:15:35.463Z,7364
2017-12-20T10:16:45.234Z,7584
2017-12-20T10:17:55.028Z,7228
2017-12-20T10:19:04.991Z,7252
2017-12-20T10:20:14.435Z,8184
2017-12-20T10:21:24.186Z,8600
2017-12-20T10:22:33.967Z,8108
2017-12-20T10:23:43.417Z,7160
2017-12-20T10:24:53.345Z,8096
2017-12-20T10:26:03.061Z,9384
2017-12-20T10:27:12.507Z,10024
2017-12-20T10:28:22.551Z,10164
2017-12-20T10:29:32.261Z,9904
2017-12-20T10:30:42.230Z,9100
2017-12-20T10:31:51.952Z,8468
2017-12-20T10:33:01.912Z,8232
2017-12-20T10:34:11.610Z,9496
2017-12-20T10:35:21.602Z,9932
2017-12-20T10:36:31.553Z,10460
2017-12-20T10:37:40.997Z,11296
2017-12-20T10:38:50.944Z,10568
2017-12-20T10:40:00.890Z,9660
2017-12-20T10:41:10.883Z,9000
2017-12-20T10:42:20.853Z,9904
2017-12-20T10:43:30.296Z,10688
2017-12-20T10:44:40.243Z,10820
2017-12-20T10:45:49.947Z,10404
2017-12-20T10:46:59.897Z,9408
2017-12-20T10:48:09.324Z,8676
2017-12-20T10:49:19.285Z,8548
2017-12-20T10:50:29.277Z,9168
2017-12-20T10:51:38.468Z,9656
2017-12-20T10:52:48.430Z,9812
2017-12-20T10:53:58.137Z,9360
2017-12-20T10:55:08.101Z,9132
2017-12-20T10:56:18.054Z,9140
2017-12-20T10:57:28.016Z,8744
2017-12-20T10:58:37.969Z,7568
2017-12-20T10:59:47.919Z,7168
2017-12-20T11:00:57.614Z,7588
2017-12-20T11:02:07.569Z,8008
2017-12-20T11:03:17.270Z,8688
2017-12-20T11:04:26.713Z,9452
2017-12-20T11:05:36.148Z,8924
2017-12-20T11:06:46.116Z,8552
2017-12-20T11:07:56.080Z,7868
2017-12-20T11:09:05.558Z,7568
2017-12-20T11:10:15.513Z,7660
2017-12-20T11:11:24.972Z,7936
2017-12-20T11:12:34.691Z,7664
2017-12-20T11:13:44.657Z,7592
2017-12-20T11:14:54.359Z,7668
2017-12-20T11:16:04.326Z,7688
2017-12-20T11:17:14.050Z,7748
2017-12-20T11:18:23.988Z,7684
2017-12-20T11:19:33.168Z,7300
2017-12-20T11:20:43.112Z,7268
2017-12-20T11:21:52.829Z,7736
2017-12-20T11:23:02.536Z,8416
2017-12-20T11:24:12.518Z,8344
2017-12-20T11:25:22.504Z,9396
2017-12-20T11:26:32.466Z,9628
2017-12-20T11:27:42.428Z,10176
2017-12-20T11:28:52.117Z,11952
2017-12-20T11:30:01.800Z,10496
2017-12-20T11:31:11.749Z,9524
2017-12-20T11:32:21.695Z,8188
2017-12-20T11:33:31.124Z,8752
2017-12-20T11:34:41.090Z,8744
2017-12-20T11:35:51.050Z,7764
2017-12-20T11:37:01.017Z,6704
2017-12-20T11:38:10.716Z,6292
2017-12-20T11:39:20.697Z,6348
2017-12-20T11:40:30.414Z,6392
2017-12-20T11:41:40.381Z,6512
2017-12-20T11:42:49.830Z,6636
2017-12-20T11:43:59.273Z,7304
2017-12-20T11:45:09.045Z,8220
2017-12-20T11:46:19.028Z,8452
2017-12-20T11:47:28.459Z,8648
2017-12-20T11:48:38.426Z,8764
2017-12-20T11:49:47.858Z,9164
2017-12-20T11:50:57.556Z,9516
2017-12-20T11:52:07.535Z,8908
2017-12-20T11:53:17.508Z,7908
2017-12-20T11:54:27.221Z,7224
2017-12-20T11:55:36.652Z,6516
2017-12-20T11:56:46.088Z,5892
2017-12-20T11:57:55.269Z,6172
2017-12-20T11:59:04.715Z,6604
2017-12-20T12:00:14.150Z,6788
2017-12-20T12:01:23.623Z,7148
2017-12-20T12:02:33.309Z,7800
2017-12-20T12:03:43.126Z,7872
2017-12-20T12:04:52.828Z,7160
2017-12-20T12:06:02.536Z,6520
2017-12-20T12:07:12.241Z,6160
2017-12-20T12:08:22.288Z,6164
2017-12-20T12:09:31.741Z,6888
2017-12-20T12:10:41.440Z,6504
2017-12-20T12:11:50.869Z,5736
2017-12-20T12:13:00.299Z,5352
2017-12-20T12:14:10.257Z,5548
2017-12-20T12:15:19.735Z,5404
2017-12-20T12:16:29.680Z,5160
2017-12-20T12:17:39.388Z,5140
2017-12-20T12:18:49.080Z,5072
2017-12-20T12:19:58.780Z,4916
2017-12-20T12:21:08.497Z,4908
2017-12-20T12:22:18.194Z,4800
2017-12-20T12:23:27.629Z,4860
2017-12-20T12:24:37.322Z,4932
2017-12-20T12:25:46.760Z,4988
2017-12-20T12:26:56.194Z,5220
2017-12-20T12:28:05.891Z,5524
2017-12-20T12:29:15.599Z,4940
2017-12-20T12:30:25.564Z,4424
2017-12-20T12:31:35.010Z,4464
2017-12-20T12:32:44.739Z,4360
2017-12-20T12:33:54.447Z,4044
2017-12-20T12:35:03.886Z,3808
2017-12-20T12:36:13.849Z,3980
2017-12-20T12:37:23.537Z,3968
2017-12-20T12:38:33.495Z,3540
2017-12-20T12:39:43.199Z,3336
2017-12-20T12:40:53.143Z,3448
2017-12-20T12:42:02.587Z,3824
2017-12-20T12:43:12.613Z,4208
2017-12-20T12:44:22.322Z,4260
2017-12-20T12:45:32.290Z,4224
2017-12-20T12:46:42.443Z,4384
2017-12-20T12:47:52.831Z,4812
2017-12-20T12:49:03.006Z,4668
2017-12-20T12:50:12.818Z,4432
2017-12-20T12:51:22.778Z,4232
2017-12-20T12:52:32.740Z,4088
2017-12-20T12:53:42.197Z,3548
2017-12-20T12:54:52.161Z,3292
2017-12-20T12:56:02.124Z,3236
2017-12-20T12:57:11.840Z,3064
2017-12-20T12:58:21.533Z,2896
2017-12-20T12:59:30.968Z,2720
2017-12-20T13:00:40.925Z,2556
2017-12-20T13:01:50.359Z,2408
2017-12-20T13:03:00.063Z,2364
2017-12-20T13:04:10.032Z,2392
2017-12-20T13:05:20.000Z,2452
2017-12-20T13:06:29.972Z,2416
2017-12-20T13:07:39.691Z,2312
2017-12-20T13:08:49.645Z,2280
2017-12-20T13:09:59.104Z,2232
2017-12-20T13:11:09.054Z,2224
2017-12-20T13:12:18.814Z,2272
2017-12-20T13:13:28.532Z,2228
2017-12-20T13:14:38.499Z,2100
2017-12-20T13:15:48.465Z,2048
2017-12-20T13:16:58.180Z,2060
2017-12-20T13:18:08.146Z,2132
2017-12-20T13:19:18.110Z,2156
2017-12-20T13:20:28.095Z,2212
2017-12-20T13:21:38.067Z,2384
2017-12-20T13:22:47.776Z,2420
2017-12-20T13:23:57.479Z,2256
2017-12-20T13:25:06.934Z,2208
2017-12-20T13:26:16.371Z,2132
2017-12-20T13:27:26.326Z,2180
2017-12-20T13:28:36.312Z,2200
2017-12-20T13:29:46.266Z,2132
2017-12-20T13:30:56.226Z,2104
2017-12-20T13:32:05.660Z,2124
2017-12-20T13:33:15.614Z,2152
2017-12-20T13:34:25.052Z,1980
2017-12-20T13:35:34.751Z,1984
2017-12-20T13:36:44.191Z,1980
2017-12-20T13:37:54.151Z,1836
2017-12-20T13:39:04.118Z,1512
2017-12-20T13:40:14.101Z,1324
2017-12-20T13:41:24.140Z,1320
2017-12-20T13:42:34.100Z,1332
2017-12-20T13:43:43.791Z,1268
2017-12-20T13:44:53.487Z,1240
2017-12-20T13:46:02.919Z,1180
2017-12-20T13:47:12.615Z,1192
2017-12-20T13:48:22.343Z,1228
2017-12-20T13:49:32.035Z,1188
2017-12-20T13:50:42.004Z,1128
2017-12-20T13:51:51.440Z,1148
2017-12-20T13:53:01.132Z,1168
2017-12-20T13:54:11.118Z,1132
2017-12-20T13:55:20.823Z,1092
2017-12-20T13:56:30.782Z,1096
2017-12-20T13:57:40.483Z,988
2017-12-20T13:58:50.426Z,920
2017-12-20T14:00:00.123Z,824
2017-12-20T14:01:10.076Z,776
2017-12-20T14:02:20.020Z,744
2017-12-20T14:03:29.460Z,720
2017-12-20T14:04:39.170Z,672
2017-12-20T14:05:48.849Z,644
2017-12-20T14:06:58.298Z,640
2017-12-20T14:08:07.997Z,676
2017-12-20T14:09:17.689Z,732
2017-12-20T14:10:27.382Z,676
2017-12-20T14:11:36.829Z,676
2017-12-20T14:12:46.278Z,596
2017-12-20T14:13:56.265Z,564
2017-12-20T14:15:05.448Z,544
2017-12-20T14:16:15.148Z,500
2017-12-20T14:17:24.835Z,464
2017-12-20T14:18:34.530Z,436
2017-12-20T14:19:44.237Z,396
2017-12-20T14:20:54.186Z,364
2017-12-20T14:22:04.160Z,344
2017-12-20T14:23:13.875Z,340
2017-12-20T14:24:23.898Z,324
2017-12-20T14:25:33.593Z,320
2017-12-20T14:26:43.280Z,328
2017-12-20T14:27:52.975Z,328
2017-12-20T14:29:02.934Z,320
2017-12-20T14:30:12.884Z,316
2017-12-20T14:31:22.575Z,312
2017-12-20T14:32:32.271Z,300
2017-12-20T14:33:41.711Z,288
2017-12-20T14:34:51.406Z,272
2017-12-20T14:36:01.106Z,252
2017-12-20T14:37:11.072Z,236
2017-12-20T14:38:20.786Z,228
2017-12-20T14:39:30.511Z,216
2017-12-20T14:40:40.722Z,208
2017-12-20T14:41:50.425Z,196
2017-12-20T14:43:00.382Z,184
2017-12-20T14:44:10.161Z,176
2017-12-20T14:45:20.131Z,156
2017-12-20T14:46:29.554Z,152
2017-12-20T14:47:39.513Z,136
2017-12-20T14:48:49.210Z,128
2017-12-20T14:49:58.123Z,108
2017-12-20T14:51:07.817Z,104
2017-12-20T14:52:17.775Z,96
2017-12-20T14:53:27.723Z,92
2017-12-20T14:54:37.681Z,84
2017-12-20T14:55:47.632Z,76
2017-12-20T14:56:57.600Z,68
2017-12-20T14:58:07.297Z,60
2017-12-20T14:59:17.249Z,56
2017-12-20T15:00:26.966Z,56
2017-12-20T15:01:36.950Z,52
2017-12-20T15:02:46.911Z,48
2017-12-20T15:03:56.629Z,44
2017-12-20T15:05:06.087Z,36
2017-12-20T15:06:15.795Z,32
2017-12-20T15:07:25.506Z,28
2017-12-20T15:08:35.194Z,24
2017-12-20T15:09:44.647Z,24
2017-12-20T15:10:54.624Z,20
2017-12-20T15:12:04.384Z,16
2017-12-20T15:13:14.360Z,16
2017-12-20T15:14:24.051Z,12
2017-12-20T15:15:33.753Z,12
2017-12-20T15:16:43.763Z,12
2017-12-20T15:17:53.500Z,12
2017-12-20T15:19:03.482Z,8
2017-12-20T15:20:13.182Z,8
2017-12-20T15:21:22.610Z,8
2017-12-20T15:22:32.580Z,4
2017-12-20T15:23:42.289Z,4
2017-12-20T15:24:51.989Z,4
2017-12-20T15:26:01.951Z,4
2017-12-20T15:27:11.637Z,0
2017-12-20T15:28:21.596Z,4
2017-12-20T15:29:31.586Z,4
2017-12-20T15:30:41.018Z,0
2017-12-20T15:31:50.714Z,0
2017-12-20T15:33:00.411Z,0
2017-12-20T15:34:09.857Z,0
2017-12-20T15:35:19.817Z,0
2017-12-20T15:36:29.775Z,0
2017-12-20T15:37:39.478Z,0
2017-12-20T15:38:49.451Z,0
2017-12-20T15:39:59.410Z,0
2017-12-20T15:41:09.371Z,0
2017-12-20T15:42:19.071Z,0
2017-12-20T15:43:29.022Z,0
2017-12-20T15:44:38.459Z,0
2017-12-20T15:45:48.417Z,0
2017-12-20T15:46:57.339Z,0
2017-12-20T15:48:07.030Z,0
2017-12-20T15:49:17.005Z,0
2017-12-20T15:50:26.969Z,0
2017-12-20T15:51:36.928Z,0
2017-12-20T15:52:46.671Z,0
2017-12-20T15:53:56.700Z,0
2017-12-20T15:55:06.646Z,0
2017-12-20T15:56:16.590Z,0
2017-12-20T15:57:26.548Z,0
2017-12-20T15:58:36.498Z,0
2017-12-20T15:59:46.460Z,0
2017-12-20T16:00:56.151Z,0
2017-12-20T16:02:05.865Z,0
2017-12-20T16:03:15.573Z,0
2017-12-20T16:04:25.266Z,0
2017-12-20T16:05:35.383Z,0
2017-12-20T16:06:45.577Z,0
2017-12-20T16:07:55.532Z,0
2017-12-20T16:09:05.497Z,0
2017-12-20T16:10:15.194Z,0
2017-12-20T16:11:24.916Z,0
2017-12-20T16:12:34.873Z,0
2017-12-20T16:13:44.558Z,0
2017-12-20T16:14:54.271Z,0
2017-12-20T16:16:03.977Z,0
2017-12-20T16:17:13.682Z,0
2017-12-20T16:18:23.869Z,0
2017-12-20T16:19:33.876Z,0
2017-12-20T16:20:43.819Z,0
2017-12-20T16:21:53.855Z,0